Time;durP1;ratioP1;P1;durP2;ratioP2;P2;SDS_P1;SDS_P2;PMS_P1;PMS_P2;Temp;Humidity;BMP_temperature;BMP_pressure;BME280_temperature;BME280_humidity;BME280_pressure;Samples;Min_cycle;Max_cycle;Signal;HPM_P1;HPM_P2
2023/05/23 00:01:06;;;;;;;5.80;3.72;;;;;;;14.15;100.00;98452.59;4501675;31;20106;-67
2023/05/23 00:03:33;;;;;;;8.25;4.05;;;;;;;14.14;100.00;98453.56;4501340;31;20428;-67
2023/05/23 00:06:01;;;;;;;8.98;4.57;;;;;;;14.05;100.00;98451.94;4501744;31;20119;-67
2023/05/23 00:08:28;;;;;;;6.78;4.28;;;;;;;14.00;100.00;98450.66;4501914;31;20171;-67
2023/05/23 00:10:55;;;;;;;7.57;4.60;;;;;;;13.98;100.00;98447.34;4501636;31;20088;-67
2023/05/23 00:13:23;;;;;;;7.93;3.92;;;;;;;13.97;100.00;98451.00;4490368;31;20096;-67
2023/05/23 00:15:51;;;;;;;6.62;4.45;;;;;;;13.95;100.00;98447.69;4494191;31;20095;-67
2023/05/23 00:18:18;;;;;;;7.50;4.40;;;;;;;13.96;100.00;98446.69;4501692;31;20100;-67
2023/05/23 00:20:45;;;;;;;10.63;4.47;;;;;;;13.93;100.00;98444.41;4501483;31;20481;-67
2023/05/23 00:23:17;;;;;;;8.52;4.18;;;;;;;13.94;100.00;98451.28;4501604;31;20104;-67
2023/05/23 00:25:51;;;;;;;6.68;4.07;;;;;;;13.90;100.00;98444.72;4501388;31;20088;-67
2023/05/23 00:28:19;;;;;;;;;;;;;;;13.88;100.00;98445.87;4501701;31;20162;-67
2023/05/23 00:30:51;;;;;;;6.57;3.92;;;;;;;13.83;100.00;98449.00;4501503;31;19968;-67
2023/05/23 00:33:20;;;;;;;9.43;4.30;;;;;;;13.83;100.00;98449.00;4501538;31;20471;-67
2023/05/23 00:35:48;;;;;;;10.95;4.53;;;;;;;13.80;100.00;98449.34;4501437;31;20117;-67
2023/05/23 00:38:16;;;;;;;7.30;4.25;;;;;;;13.69;100.00;98441.75;4500203;31;20091;-67
2023/05/23 00:40:43;;;;;;;9.55;4.75;;;;;;;13.52;100.00;98449.69;4501258;31;20092;-67
2023/05/23 00:43:11;;;;;;;6.65;4.22;;;;;;;13.48;100.00;98438.66;4501416;31;20095;-67
2023/05/23 00:45:38;;;;;;;6.60;4.25;;;;;;;13.47;100.00;98446.72;4501142;31;20483;-67
2023/05/23 00:48:06;;;;;;;8.48;4.40;;;;;;;13.47;100.00;98449.34;4501432;31;20462;-67
2023/05/23 00:50:35;;;;;;;8.88;4.40;;;;;;;13.48;100.00;98451.00;4500994;31;20114;-67
2023/05/23 00:53:02;;;;;;;8.90;4.47;;;;;;;13.47;100.00;98452.81;4499981;31;20084;-67
2023/05/23 00:55:30;;;;;;;9.18;4.45;;;;;;;13.45;100.00;98446.87;4500998;31;20088;-67
2023/05/23 00:57:58;;;;;;;6.10;4.20;;;;;;;13.45;100.00;98446.87;4499145;31;20131;-67
2023/05/23 01:00:25;;;;;;;7.55;5.57;;;;;;;13.47;100.00;98457.22;4499837;31;20110;-67
2023/05/23 01:02:53;;;;;;;11.52;5.00;;;;;;;13.44;100.00;98465.44;4499959;31;20768;-67
2023/05/23 01:05:23;;;;;;;12.93;6.75;;;;;;;13.45;100.00;98452.13;4501107;31;20084;-67
2023/05/23 01:07:51;;;;;;;8.65;6.28;;;;;;;13.49;100.00;98452.66;4501109;31;20485;-67
2023/05/23 01:10:21;;;;;;;11.15;6.60;;;;;;;13.52;100.00;98452.31;4501301;31;20524;-67
2023/05/23 01:13:14;;;;;;;8.55;5.85;;;;;;;13.52;100.00;98446.22;4492510;31;20100;-67
2023/05/23 01:16:01;;;;;;;12.07;5.40;;;;;;;13.50;100.00;98446.37;4443146;32;20101;-67
2023/05/23 01:18:53;;;;;;;12.68;5.62;;;;;;;13.49;100.00;98437.66;4438535;32;20096;-67
2023/05/23 01:21:21;;;;;;;9.80;6.20;;;;;;;13.48;100.00;98437.84;4438575;32;20474;-67
2023/05/23 01:24:12;;;;;;;15.90;6.28;;;;;;;13.47;100.00;98433.53;4438752;32;20176;-67
2023/05/23 01:26:58;;;;;;;15.20;6.57;;;;;;;13.50;100.00;98435.84;4438651;32;20127;-67
2023/05/23 01:29:34;;;;;;;10.18;5.85;;;;;;;13.57;100.00;98428.94;4451623;32;20092;-67
2023/05/23 01:32:05;;;;;;;8.40;5.62;;;;;;;13.55;100.00;98425.66;4438600;32;20085;-67
2023/05/23 01:34:34;;;;;;;11.52;6.05;;;;;;;13.48;100.00;98428.12;4451584;32;20463;-67
2023/05/23 01:37:07;;;;;;;10.32;5.68;;;;;;;13.45;100.00;98425.00;4438653;32;20364;-67
2023/05/23 01:39:36;;;;;;;9.88;6.22;;;;;;;13.42;100.00;98420.88;4451657;32;20640;-67
2023/05/23 01:42:03;;;;;;;14.43;6.00;;;;;;;13.39;100.00;98412.50;4451385;32;20530;-67
2023/05/23 01:44:33;;;;;;;9.40;5.85;;;;;;;13.36;100.00;98418.09;4451282;32;20133;-67
2023/05/23 01:47:05;;;;;;;6.07;4.50;;;;;;;13.35;100.00;98419.06;4438597;32;20097;-67
2023/05/23 01:49:33;;;;;;;6.78;4.85;;;;;;;13.33;100.00;98416.56;4438540;32;20093;-67
2023/05/23 01:52:00;;;;;;;8.70;5.30;;;;;;;13.34;100.00;98422.69;4451686;31;20117;-67
2023/05/23 01:54:28;;;;;;;12.27;4.90;;;;;;;13.35;100.00;98425.16;4501029;31;20123;-67
2023/05/23 01:57:00;;;;;;;6.20;4.87;;;;;;;13.34;100.00;98417.41;4500385;31;20135;-67
2023/05/23 01:59:27;;;;;;;9.52;4.87;;;;;;;13.31;100.00;98413.28;4499795;31;20103;-67
2023/05/23 02:01:56;;;;;;;8.52;5.22;;;;;;;13.29;100.00;98410.84;4500826;31;20163;-67
2023/05/23 02:04:23;;;;;;;11.30;5.15;;;;;;;13.26;100.00;98405.91;4500691;31;20176;-67
2023/05/23 02:06:50;;;;;;;10.73;4.68;;;;;;;13.25;100.00;98409.50;4500757;31;20159;-67
2023/05/23 02:09:18;;;;;;;7.97;5.25;;;;;;;13.25;100.00;98409.50;4499221;31;20191;-67
2023/05/23 02:11:45;;;;;;;8.88;4.85;;;;;;;13.21;100.00;98407.34;4500354;31;20726;-67
2023/05/23 02:14:12;;;;;;;8.43;5.00;;;;;;;13.19;100.00;98407.53;4484977;31;20115;-67
2023/05/23 02:16:39;;;;;;;8.20;5.12;;;;;;;13.17;100.00;98411.28;4498521;31;20143;-67
2023/05/23 02:19:07;;;;;;;6.03;4.53;;;;;;;13.14;100.00;98408.00;4500688;31;20100;-67
2023/05/23 02:21:35;;;;;;;8.13;5.00;;;;;;;13.14;100.00;98409.81;4500530;31;20092;-67
2023/05/23 02:24:02;;;;;;;8.90;5.50;;;;;;;13.13;100.00;98416.06;4500629;31;20084;-67
2023/05/23 02:26:29;;;;;;;7.18;4.70;;;;;;;13.11;100.00;98418.00;4500120;31;20127;-67
2023/05/23 02:28:57;;;;;;;7.62;4.12;;;;;;;13.09;100.00;98409.47;4500393;31;20080;-67
2023/05/23 02:31:24;;;;;;;9.18;4.37;;;;;;;13.08;100.00;98407.81;4500154;31;20478;-67
2023/05/23 02:33:52;;;;;;;6.57;4.28;;;;;;;13.07;100.00;98396.50;4500285;31;20492;-67
2023/05/23 02:36:20;;;;;;;10.35;4.50;;;;;;;13.03;100.00;98402.25;4500133;31;20439;-67
2023/05/23 02:38:47;;;;;;;6.28;4.05;;;;;;;13.01;100.00;98401.59;4500319;31;20107;-67
2023/05/23 02:41:16;;;;;;;7.62;4.55;;;;;;;12.99;100.00;98401.75;4500390;31;20126;-67
2023/05/23 02:43:46;;;;;;;7.87;4.10;;;;;;;12.99;100.00;98404.38;4500491;31;20564;-67
2023/05/23 02:46:14;;;;;;;12.02;5.25;;;;;;;12.98;100.00;98401.91;4499983;31;20496;-67
2023/05/23 02:48:42;;;;;;;9.13;4.37;;;;;;;13.02;100.00;98398.78;4500160;31;20096;-67
2023/05/23 02:51:12;;;;;;;9.63;4.68;;;;;;;12.98;100.00;98397.47;4499887;31;20453;-67
2023/05/23 02:53:40;;;;;;;8.85;4.20;;;;;;;12.92;100.00;98393.66;4500130;31;20104;-67
2023/05/23 02:56:07;;;;;;;6.50;4.03;;;;;;;12.92;100.00;98392.84;4499951;31;20119;-67
2023/05/23 02:58:35;;;;;;;10.98;4.35;;;;;;;12.92;100.00;98396.28;4499930;31;20462;-67
2023/05/23 03:01:02;;;;;;;8.82;4.43;;;;;;;12.90;100.00;98395.66;4499792;31;20103;-67
2023/05/23 03:03:32;;;;;;;7.50;4.05;;;;;;;12.93;100.00;98391.88;4499942;31;20150;-67
2023/05/23 03:06:02;;;;;;;5.72;3.78;;;;;;;12.96;100.00;98388.94;4499831;31;20133;-67
2023/05/23 03:08:29;;;;;;;7.40;4.18;;;;;;;13.02;100.00;98387.44;4499954;31;20095;-67
2023/05/23 03:10:56;;;;;;;5.75;4.25;;;;;;;13.06;100.00;98394.03;4499805;31;20100;-67
2023/05/23 03:13:24;;;;;;;8.27;3.83;;;;;;;13.07;100.00;98390.41;4488483;31;20096;-67
2023/05/23 03:15:51;;;;;;;5.65;3.83;;;;;;;13.08;100.00;98397.31;4492150;31;20091;-67
2023/05/23 03:18:19;;;;;;;7.32;4.03;;;;;;;13.09;100.00;98398.97;4499616;31;20460;-67
2023/05/23 03:20:46;;;;;;;5.95;4.20;;;;;;;13.12;100.00;98393.37;4500014;31;20170;-67
2023/05/23 03:23:14;;;;;;;5.10;3.83;;;;;;;13.15;100.00;98398.31;4501780;31;20107;-67
2023/05/23 03:25:42;;;;;;;6.50;3.60;;;;;;;13.16;100.00;98399.97;4501822;31;20143;-67
2023/05/23 03:28:11;;;;;;;7.03;3.78;;;;;;;13.23;100.00;98400.13;4501854;31;20268;-67
2023/05/23 03:30:38;;;;;;;9.90;4.15;;;;;;;13.28;100.00;98403.91;4502057;31;20071;-67
2023/05/23 03:33:06;;;;;;;5.82;4.03;;;;;;;13.35;100.00;98398.84;4501755;31;20115;-67
2023/05/23 03:35:33;;;;;;;8.88;3.85;;;;;;;13.42;100.00;98391.94;4502164;31;20110;-67
2023/05/23 03:38:00;;;;;;;6.95;3.92;;;;;;;13.46;100.00;98400.34;4501836;31;20449;-67
2023/05/23 03:40:28;;;;;;;7.40;4.35;;;;;;;13.47;100.00;98396.72;4501803;31;20645;-67
2023/05/23 03:43:05;;;;;;;6.37;4.35;;;;;;;13.53;100.00;98395.22;4501791;31;20104;-67
2023/05/23 03:45:32;;;;;;;7.10;3.78;;;;;;;13.54;100.00;98397.69;4502224;31;20136;-67
2023/05/23 03:48:01;;;;;;;5.60;3.60;;;;;;;13.57;100.00;98397.38;4501816;31;20155;-67
2023/05/23 03:50:29;;;;;;;5.70;3.50;;;;;;;13.60;100.00;98402.31;4501921;31;20201;-67
2023/05/23 03:52:56;;;;;;;6.18;4.47;;;;;;;13.66;100.00;98400.81;4501474;31;20507;-67
2023/05/23 03:55:24;;;;;;;6.25;4.10;;;;;;;13.72;100.00;98397.53;4501839;31;20100;-67
2023/05/23 03:57:51;;;;;;;7.35;4.10;;;;;;;13.83;100.00;98396.34;4501530;31;20663;-67
2023/05/23 04:00:18;;;;;;;9.35;4.05;;;;;;;13.93;100.00;98398.78;4501787;31;20563;-67
2023/05/23 04:02:50;;;;;;;10.05;3.90;;;;;;;14.04;100.00;98406.34;4501779;31;20088;-67
2023/05/23 04:05:18;;;;;;;12.30;4.62;;;;;;;14.18;100.00;98402.19;4501322;31;20127;-67
2023/05/23 04:07:45;;;;;;;5.95;3.87;;;;;;;14.32;100.00;98400.66;4501269;31;20122;-67
2023/05/23 04:10:13;;;;;;;7.68;4.00;;;;;;;14.45;100.00;98398.31;4501445;31;20107;-67
2023/05/23 04:12:41;;;;;;;8.27;4.07;;;;;;;14.61;100.00;98397.47;4494739;31;20088;-67
2023/05/23 04:15:10;;;;;;;8.18;4.90;;;;;;;14.78;100.00;98397.38;4489484;31;20096;-67
2023/05/23 04:17:39;;;;;;;9.82;4.40;;;;;;;14.91;100.00;98400.25;4500648;31;20104;-67
2023/05/23 04:20:08;;;;;;;5.40;3.72;;;;;;;15.07;100.00;98396.72;4501420;31;20110;-67
2023/05/23 04:22:35;;;;;;;11.93;3.95;;;;;;;15.23;100.00;98403.66;4500269;31;20398;-67
2023/05/23 04:25:05;;;;;;;16.73;4.40;;;;;;;15.36;100.00;98396.00;4501711;31;20092;-67
2023/05/23 04:27:34;;;;;;;7.78;4.10;;;;;;;15.50;100.00;98390.94;4501088;31;20533;-67
2023/05/23 04:30:07;;;;;;;8.02;3.97;;;;;;;15.65;100.00;98393.63;4495005;31;20116;-67
2023/05/23 04:32:35;;;;;;;6.15;4.03;;;;;;;15.82;100.00;98391.66;4500686;31;20076;-68
2023/05/23 04:35:03;;;;;;;6.85;4.50;;;;;;;15.96;100.00;98393.53;4501650;31;20091;-67
2023/05/23 04:37:31;;;;;;;7.80;4.43;;;;;;;16.11;100.00;98394.34;4501414;31;20099;-68
2023/05/23 04:40:00;;;;;;;10.57;5.78;;;;;;;16.27;100.00;98401.25;4501454;31;20143;-67
2023/05/23 04:42:28;;;;;;;9.30;4.85;;;;;;;16.47;100.00;98401.53;4496306;31;20112;-67
2023/05/23 04:44:57;;;;;;;30.27;6.65;;;;;;;16.68;100.00;98405.22;4485754;31;20093;-67
2023/05/23 04:47:27;;;;;;;16.65;5.40;;;;;;;16.82;100.00;98399.09;4485290;31;20170;-68
2023/05/23 04:49:56;;;;;;;7.93;5.30;;;;;;;17.16;100.00;98402.94;4485501;31;20456;-68
2023/05/23 04:52:24;;;;;;;21.00;4.95;;;;;;;17.41;100.00;98399.94;4493838;31;20501;-68
2023/05/23 04:54:52;;;;;;;19.35;7.12;;;;;;;17.60;100.00;98402.94;4501274;31;20504;-68
2023/05/23 04:57:20;;;;;;;11.10;4.93;;;;;;;17.90;100.00;98404.41;4487014;31;20118;-68
2023/05/23 04:59:48;;;;;;;8.38;5.10;;;;;;;18.20;100.00;98404.19;4495567;31;20170;-68
2023/05/23 05:02:15;;;;;;;11.85;5.45;;;;;;;18.44;100.00;98402.91;4497036;31;20466;-67
2023/05/23 05:04:43;;;;;;;14.25;5.00;;;;;;;18.51;100.00;98402.09;4498879;31;20105;-68
2023/05/23 05:07:10;;;;;;;11.07;4.50;;;;;;;18.68;100.00;98413.19;4500699;31;20370;-68
2023/05/23 05:09:38;;;;;;;8.18;4.95;;;;;;;18.77;100.00;98401.37;4500884;31;20449;-68
2023/05/23 05:12:06;;;;;;;11.57;5.45;;;;;;;18.98;100.00;98397.81;4497591;31;20096;-68
2023/05/23 05:14:34;;;;;;;13.40;6.75;;;;;;;19.06;100.00;98402.94;4500910;31;20092;-68
2023/05/23 05:17:02;;;;;;;14.48;5.47;;;;;;;19.11;100.00;98399.69;4495154;31;20149;-68
2023/05/23 05:19:32;;;;;;;26.27;5.70;;;;;;;19.26;100.00;98400.31;4493913;31;20123;-69
2023/05/23 05:22:00;;;;;;;15.10;5.65;;;;;;;19.33;100.00;98390.53;4495938;31;21530;-68
2023/05/23 05:24:28;;;;;;;11.57;5.62;;;;;;;19.49;100.00;98393.78;4494555;31;20135;-69
2023/05/23 05:26:56;;;;;;;14.60;5.93;;;;;;;19.72;100.00;98397.88;4495377;31;20126;-69
2023/05/23 05:29:24;;;;;;;15.10;5.97;;;;;;;19.92;100.00;98398.69;4499037;31;20582;-68
2023/05/23 05:31:52;;;;;;;23.98;7.07;;;;;;;19.78;100.00;98397.09;4492989;31;20100;-69
2023/05/23 05:34:20;;;;;;;27.87;6.22;;;;;;;19.77;100.00;98401.59;4500566;31;20569;-69
2023/05/23 05:36:47;;;;;;;24.33;6.15;;;;;;;19.80;100.00;98405.66;4498290;31;20170;-68
2023/05/23 05:39:15;;;;;;;15.98;6.95;;;;;;;19.90;100.00;98395.44;4497574;31;20125;-69
2023/05/23 05:41:42;;;;;;;14.82;5.97;;;;;;;20.17;100.00;98400.72;4496909;31;20100;-69
2023/05/23 05:44:09;;;;;;;14.65;5.85;;;;;;;20.26;100.00;98395.97;4493684;31;20095;-69
2023/05/23 05:46:36;;;;;;;24.08;6.57;;;;;;;20.46;100.00;98403.91;4500207;31;20134;-69
2023/05/23 05:49:04;;;;;;;25.08;6.28;;;;;;;20.56;100.00;98404.28;4499908;31;20156;-67
2023/05/23 05:51:31;;;;;;;15.95;5.43;;;;;;;20.41;100.00;98407.19;4489248;31;20245;-67
2023/05/23 05:53:58;;;;;;;12.18;5.22;;;;;;;20.50;100.00;98399.78;4498878;31;20164;-67
2023/05/23 05:56:26;;;;;;;18.40;5.97;;;;;;;20.67;100.00;98400.19;4492569;31;20103;-67
2023/05/23 05:58:54;;;;;;;32.40;6.45;;;;;;;20.90;100.00;98408.44;4499275;31;20144;-67
2023/05/23 06:01:22;;;;;;;11.90;5.50;;;;;;;21.02;100.00;98405.12;4499135;31;20099;-66
2023/05/23 06:03:49;;;;;;;33.65;5.57;;;;;;;20.84;99.69;98403.97;4498810;31;20151;-67
2023/05/23 06:06:17;;;;;;;11.50;5.12;;;;;;;21.03;100.00;98399.56;4499547;31;20096;-67
2023/05/23 06:08:45;;;;;;;21.35;6.32;;;;;;;21.07;100.00;98400.78;4500510;31;20108;-66
2023/05/23 06:11:13;;;;;;;14.95;4.93;;;;;;;20.91;100.00;98401.28;4498575;31;20193;-66
2023/05/23 06:13:42;;;;;;;9.75;5.30;;;;;;;21.18;100.00;98404.62;4489599;31;20124;-67
2023/05/23 06:16:09;;;;;;;12.55;4.62;;;;;;;21.42;99.70;98405.69;4483993;31;20108;-66
2023/05/23 06:18:37;;;;;;;11.65;4.82;;;;;;;21.35;97.03;98406.75;4494596;31;20155;-67
2023/05/23 06:21:05;;;;;;;11.60;4.97;;;;;;;21.61;100.00;98400.44;4495989;31;20096;-66
2023/05/23 06:23:33;;;;;;;11.50;5.28;;;;;;;21.56;100.00;98405.59;4497996;31;20551;-67
2023/05/23 06:26:01;;;;;;;21.27;5.68;;;;;;;21.48;100.00;98405.84;4496664;31;20138;-69
2023/05/23 06:28:28;;;;;;;6.80;4.68;;;;;;;21.61;100.00;98395.91;4489768;31;20456;-69
2023/05/23 06:30:56;;;;;;;14.02;4.15;;;;;;;21.77;99.53;98397.22;4497594;31;20450;-68
2023/05/23 06:33:23;;;;;;;10.88;4.15;;;;;;;21.95;96.61;98408.94;4498967;31;20633;-68
2023/05/23 06:35:51;;;;;;;20.00;5.15;;;;;;;22.15;95.79;98404.25;4496798;31;20095;-69
2023/05/23 06:38:19;;;;;;;12.27;4.75;;;;;;;22.19;100.00;98401.94;4488873;31;20092;-68
2023/05/23 06:40:47;;;;;;;14.40;4.75;;;;;;;22.25;95.21;98394.91;4490686;31;20167;-67
2023/05/23 06:43:15;;;;;;;11.48;4.15;;;;;;;22.43;94.00;98400.25;4488494;31;20100;-68
2023/05/23 06:45:45;;;;;;;10.60;4.50;;;;;;;22.40;98.10;98400.72;4493133;31;20100;-69
2023/05/23 06:48:13;;;;;;;16.00;4.82;;;;;;;22.48;94.79;98405.78;4496265;31;20144;-68
2023/05/23 06:50:40;;;;;;;5.50;3.67;;;;;;;22.43;91.12;98405.59;4498842;31;20120;-69
2023/05/23 06:53:08;;;;;;;7.32;5.30;;;;;;;22.69;88.02;98403.66;4487928;31;20160;-69
2023/05/23 06:55:35;;;;;;;12.50;4.93;;;;;;;22.81;88.84;98398.38;4488705;31;20167;-69
2023/05/23 06:58:03;;;;;;;10.73;5.00;;;;;;;22.85;89.09;98397.69;4497101;31;20172;-69
2023/05/23 07:00:31;;;;;;;8.50;4.22;;;;;;;22.86;87.15;98402.00;4493554;31;20161;-69
2023/05/23 07:03:02;;;;;;;11.00;4.82;;;;;;;23.08;95.86;98401.50;4489548;31;20118;-69
2023/05/23 07:05:32;;;;;;;8.63;4.90;;;;;;;23.24;93.54;98396.56;4498406;31;20096;-69
2023/05/23 07:08:00;;;;;;;13.07;5.03;;;;;;;23.39;90.35;98394.28;4487883;31;20121;-69
2023/05/23 07:10:28;;;;;;;5.90;3.75;;;;;;;23.45;89.39;98397.91;4491799;31;20391;-69
2023/05/23 07:12:57;;;;;;;10.18;4.25;;;;;;;23.34;87.58;98396.84;4499410;31;20171;-69
2023/05/23 07:15:25;;;;;;;9.23;4.55;;;;;;;23.47;87.73;98391.28;4485662;31;20519;-69
2023/05/23 07:17:53;;;;;;;8.45;4.57;;;;;;;23.74;90.65;98391.66;4493931;31;20100;-69
2023/05/23 07:20:20;;;;;;;9.75;4.78;;;;;;;23.65;86.15;98392.22;4492202;31;20160;-70
2023/05/23 07:22:50;;;;;;;13.43;5.25;;;;;;;23.64;87.52;98385.25;4496030;31;20118;-70
2023/05/23 07:25:18;;;;;;;7.40;4.50;;;;;;;23.82;90.90;98382.47;4488849;31;20092;-69
2023/05/23 07:27:45;;;;;;;10.07;4.87;;;;;;;24.02;87.94;98386.69;4490652;31;20103;-69
2023/05/23 07:30:13;;;;;;;9.00;4.87;;;;;;;23.87;84.31;98384.47;4491052;31;20109;-69
2023/05/23 07:32:40;;;;;;;11.90;5.25;;;;;;;23.81;87.84;98394.22;4492910;31;20160;-70
2023/05/23 07:35:08;;;;;;;6.62;5.07;;;;;;;23.76;91.35;98393.28;4491123;31;20168;-69
2023/05/23 07:37:36;;;;;;;6.18;4.85;;;;;;;23.43;87.50;98384.75;4492152;31;20107;-69
2023/05/23 07:40:04;;;;;;;9.90;5.00;;;;;;;23.58;90.61;98395.00;4487755;31;20150;-70
2023/05/23 07:42:32;;;;;;;9.65;5.55;;;;;;;23.75;86.12;98392.47;4489267;31;20125;-70
2023/05/23 07:44:59;;;;;;;7.80;5.82;;;;;;;24.02;89.75;98394.72;4488619;31;20131;-70
2023/05/23 07:47:27;;;;;;;11.93;6.12;;;;;;;24.21;89.17;98393.53;4492204;31;20156;-70
2023/05/23 07:49:54;;;;;;;11.63;6.82;;;;;;;24.38;87.17;98393.59;4489636;31;20134;-69
2023/05/23 07:52:22;;;;;;;10.55;5.82;;;;;;;24.36;84.42;98393.03;4492670;31;20104;-69
2023/05/23 07:54:50;;;;;;;14.73;6.03;;;;;;;24.43;84.43;98392.91;4489077;31;20206;-69
2023/05/23 07:57:17;;;;;;;13.25;6.22;;;;;;;24.50;81.81;98387.41;4490865;31;21144;-70
2023/05/23 07:59:44;;;;;;;11.98;6.07;;;;;;;24.50;80.30;98392.75;4492630;31;20116;-70
2023/05/23 08:02:12;;;;;;;9.57;6.12;;;;;;;24.47;80.20;98388.72;4492787;31;20092;-69
2023/05/23 08:04:39;;;;;;;12.07;6.32;;;;;;;24.60;89.42;98393.00;4496743;31;20108;-69
2023/05/23 08:07:08;;;;;;;11.00;5.37;;;;;;;24.60;84.21;98393.00;4495492;31;20096;-69
2023/05/23 08:09:37;;;;;;;12.00;6.03;;;;;;;24.71;84.31;98391.31;4492884;31;20579;-69
2023/05/23 08:12:06;;;;;;;16.42;6.32;;;;;;;24.50;79.80;98387.41;4494141;31;20105;-70
2023/05/23 08:14:33;;;;;;;10.52;5.87;;;;;;;24.54;86.89;98386.72;4494460;31;20096;-69
2023/05/23 08:17:16;;;;;;;9.88;5.32;;;;;;;24.73;82.58;98390.03;4491630;31;20164;-69
2023/05/23 08:19:45;;;;;;;8.27;5.40;;;;;;;24.58;87.88;98385.19;4494967;31;20159;-69
2023/05/23 08:22:12;;;;;;;11.05;5.50;;;;;;;24.65;83.72;98400.31;4494610;31;20097;-69
2023/05/23 08:24:40;;;;;;;9.55;6.35;;;;;;;24.64;83.50;98393.34;4494224;31;20619;-68
2023/05/23 08:27:08;;;;;;;9.48;4.93;;;;;;;24.75;78.43;98390.59;4496181;31;20118;-69
2023/05/23 08:29:36;;;;;;;9.10;5.28;;;;;;;24.96;78.40;98397.16;4489146;31;20429;-69
2023/05/23 08:32:04;;;;;;;11.45;5.45;;;;;;;25.02;69.64;98394.59;4495557;31;20080;-70
2023/05/23 08:34:33;;;;;;;27.95;6.70;;;;;;;24.89;78.46;98395.69;4494951;31;20147;-69
2023/05/23 08:37:02;;;;;;;16.17;5.87;;;;;;;24.92;76.37;98396.03;4491213;31;20381;-68
2023/05/23 08:39:29;;;;;;;9.38;5.68;;;;;;;25.05;80.20;98394.13;4490814;31;20919;-70
2023/05/23 08:41:57;;;;;;;16.35;5.50;;;;;;;25.07;75.43;98395.50;4492534;31;20152;-69
2023/05/23 08:44:24;;;;;;;18.45;6.35;;;;;;;25.13;78.39;98388.34;4486607;31;20558;-69
2023/05/23 08:46:52;;;;;;;8.40;5.30;;;;;;;25.14;73.61;98398.81;4495473;31;20104;-69
2023/05/23 08:49:21;;;;;;;10.73;5.75;;;;;;;25.21;81.90;98390.66;4499379;31;20120;-69
2023/05/23 08:51:51;;;;;;;9.35;5.53;;;;;;;25.19;79.34;98384.69;4492800;31;20138;-69
2023/05/23 08:54:21;;;;;;;12.52;6.78;;;;;;;25.22;75.63;98394.94;4481970;31;20084;-69
2023/05/23 08:56:48;;;;;;;10.43;5.05;;;;;;;25.08;81.67;98399.78;4492503;31;20504;-69
2023/05/23 08:59:17;;;;;;;7.60;5.03;;;;;;;25.13;74.22;98391.03;4486573;31;20084;-69
2023/05/23 09:01:47;;;;;;;8.32;4.87;;;;;;;24.89;66.05;98390.31;4482764;31;20105;-69
2023/05/23 09:04:14;;;;;;;17.62;5.82;;;;;;;24.91;69.23;98393.59;4490823;31;20135;-69
2023/05/23 09:06:43;;;;;;;19.73;5.75;;;;;;;25.13;76.56;98396.38;4490733;31;20151;-69
2023/05/23 09:09:11;;;;;;;8.95;5.95;;;;;;;25.39;69.34;98389.66;4488808;31;20156;-69
2023/05/23 09:11:40;;;;;;;13.88;5.72;;;;;;;25.61;71.05;98394.28;4494426;31;20092;-69
2023/05/23 09:14:08;;;;;;;6.78;5.05;;;;;;;25.75;69.52;98400.13;4489320;31;20175;-69
2023/05/23 09:16:35;;;;;;;10.82;5.60;;;;;;;25.77;65.64;98404.19;4495980;31;20461;-69
2023/05/23 09:19:11;;;;;;;10.07;6.80;;;;;;;25.88;69.21;98399.78;4494800;31;20107;-69
2023/05/23 09:21:43;;;;;;;19.58;6.70;;;;;;;25.81;62.89;98393.75;4494191;31;20087;-68
2023/05/23 09:24:11;;;;;;;15.45;7.28;;;;;;;25.63;78.47;98403.72;4488268;31;20148;-69
2023/05/23 09:26:39;;;;;;;14.07;6.22;;;;;;;25.84;78.75;98402.16;4486078;31;20139;-69
2023/05/23 09:29:07;;;;;;;13.48;7.72;;;;;;;26.07;74.87;98394.97;4492945;31;20188;-70
2023/05/23 09:31:34;;;;;;;9.93;7.32;;;;;;;26.35;74.62;98393.19;4491933;31;20111;-70
2023/05/23 09:34:02;;;;;;;11.73;6.85;;;;;;;26.35;75.14;98396.69;4490751;31;20195;-69
2023/05/23 09:36:32;;;;;;;16.85;6.25;;;;;;;26.25;71.56;98393.87;4489686;31;20127;-69
2023/05/23 09:39:06;;;;;;;11.00;5.78;;;;;;;25.78;69.57;98396.94;4493539;31;20551;-68
2023/05/23 09:41:34;;;;;;;10.02;6.18;;;;;;;25.65;74.14;98396.22;4488807;31;20145;-66
2023/05/23 09:44:07;;;;;;;11.05;5.62;;;;;;;25.75;64.79;98394.75;4491959;31;20195;-68
2023/05/23 09:46:37;;;;;;;15.05;6.05;;;;;;;26.00;65.46;98392.47;4493420;31;20144;-67
2023/05/23 10:01:14;;;;;;;7.53;5.45;;;;;;;27.40;71.01;98393.03;4494240;31;243634;-69
2023/05/23 10:03:49;;;;;;;8.45;5.15;;;;;;;27.40;71.01;98393.03;4495487;32;20110;-65
2023/05/23 10:06:23;;;;;;;7.78;5.35;;;;;;;27.13;62.56;98390.31;4490461;32;20529;-66
2023/05/23 10:08:54;;;;;;;;;;;;;;;27.34;65.62;98385.94;4493177;31;20174;-67
2023/05/23 10:11:34;;;;;;;6.35;5.18;;;;;;;27.28;60.49;98381.56;4487114;32;20001;-66
2023/05/23 10:14:05;;;;;;;8.55;5.10;;;;;;;27.72;62.41;98384.09;4493608;32;20179;-66
2023/05/23 10:16:55;;;;;;;7.47;5.18;;;;;;;28.00;65.07;98368.69;4489307;31;20119;-66
2023/05/23 10:19:24;;;;;;;6.43;5.03;;;;;;;28.21;65.22;98376.87;4489538;32;20152;-67
2023/05/23 10:22:00;;;;;;;7.20;5.32;;;;;;;28.63;63.08;98363.31;4489634;31;20163;-67
2023/05/23 10:24:28;;;;;;;8.48;5.35;;;;;;;28.56;59.74;98367.31;4493478;31;20160;-66
2023/05/23 10:26:55;;;;;;;7.53;4.95;;;;;;;28.68;60.03;98367.91;4488631;31;20167;-68
2023/05/23 10:29:23;;;;;;;7.10;5.10;;;;;;;28.74;55.26;98366.06;4496170;31;20104;-68
2023/05/23 10:31:51;;;;;;;10.48;5.28;;;;;;;28.03;54.32;98357.38;4485964;31;20513;-68
2023/05/23 10:34:29;;;;;;;9.77;5.50;;;;;;;27.44;58.32;98361.03;4487626;31;20112;-67
2023/05/23 10:37:03;;;;;;;7.57;5.85;;;;;;;27.13;60.82;98357.22;4492822;31;20149;-67
2023/05/23 10:39:55;;;;;;;10.60;6.12;;;;;;;26.84;62.97;98365.56;4490163;31;20110;-67
2023/05/23 10:42:58;;;;;;;7.47;5.30;;;;;;;26.89;66.85;98369.13;4490570;32;20140;-66
2023/05/23 10:45:26;;;;;;;4.97;4.32;;;;;;;27.28;63.78;98360.03;4488046;32;20096;-65
2023/05/23 10:47:54;;;;;;;9.55;5.00;;;;;;;27.71;52.66;98354.75;4492304;32;20119;-67
2023/05/23 10:50:36;;;;;;;6.65;4.50;;;;;;;27.80;58.91;98348.63;4491230;32;20203;-68
2023/05/23 10:53:04;;;;;;;5.75;4.78;;;;;;;28.09;57.04;98361.72;4493527;31;20437;-67
2023/05/23 10:55:33;;;;;;;6.10;4.10;;;;;;;28.40;59.00;98352.97;4489840;31;20127;-67
2023/05/23 10:58:20;;;;;;;4.62;4.00;;;;;;;28.70;56.53;98351.47;4488303;31;20225;-67
2023/05/23 11:00:54;;;;;;;6.18;4.65;;;;;;;28.86;51.23;98347.75;4496441;31;20639;-67
2023/05/23 11:03:46;;;;;;;5.78;4.50;;;;;;;28.76;48.13;98343.12;4484722;31;20204;-67
2023/05/23 11:06:41;;;;;;;6.62;4.22;;;;;;;28.25;48.34;98340.25;4491266;31;20865;-67
2023/05/23 11:09:26;;;;;;;8.07;4.00;;;;;;;27.97;50.27;98336.91;4488784;32;20131;-67
2023/05/23 11:12:03;;;;;;;5.57;4.28;;;;;;;28.03;47.52;98343.94;4483299;31;20088;-66
2023/05/23 11:14:36;;;;;;;9.60;4.95;;;;;;;28.11;45.02;98335.34;4473926;31;20169;-68
2023/05/23 11:17:11;;;;;;;4.87;4.12;;;;;;;27.64;49.52;98335.34;4474094;32;20097;-69
2023/05/23 11:19:38;;;;;;;7.68;4.82;;;;;;;27.53;47.73;98329.06;4478600;31;20096;-69
2023/05/23 11:22:08;;;;;;;6.55;4.05;;;;;;;27.85;46.92;98325.50;4471683;31;20084;-69
2023/05/23 11:25:06;;;;;;;5.10;4.07;;;;;;;28.26;53.85;98325.72;4472825;31;20806;-69
2023/05/23 11:27:39;;;;;;;26.52;5.37;;;;;;;28.46;54.32;98320.41;4461532;32;20161;-69
2023/05/23 11:30:16;;;;;;;8.32;4.32;;;;;;;28.27;53.26;98316.56;4476615;32;20100;-68
2023/05/23 11:32:51;;;;;;;6.18;4.32;;;;;;;28.50;54.23;98310.69;4478210;32;20088;-69
2023/05/23 11:35:20;;;;;;;6.45;4.40;;;;;;;28.82;53.51;98307.00;4481164;32;20115;-69
2023/05/23 11:37:48;;;;;;;6.62;4.43;;;;;;;29.03;44.62;98313.22;4476883;32;20104;-69
2023/05/23 11:40:27;;;;;;;6.80;4.97;;;;;;;29.09;50.21;98302.44;4483239;31;20089;-69
2023/05/23 11:42:55;;;;;;;10.25;4.60;;;;;;;28.50;45.72;98304.50;4478002;32;20129;-69
2023/05/23 11:45:23;;;;;;;9.77;5.90;;;;;;;28.61;49.73;98299.97;4477015;31;20096;-68
2023/05/23 11:47:51;;;;;;;5.62;4.47;;;;;;;28.93;49.25;98301.63;4481423;32;20095;-69
2023/05/23 11:50:19;;;;;;;17.35;5.22;;;;;;;29.00;45.00;98286.00;4477058;31;20490;-69